createdAt,value
2018-08-17T00:00:22.469Z,96720.62
2018-08-17T00:02:50.828Z,96718.59
2018-08-17T00:05:19.316Z,96716.05
2018-08-17T00:07:47.648Z,96713.84
2018-08-17T00:10:16.035Z,96710.14
2018-08-17T00:12:44.389Z,96717.63
2018-08-17T00:15:13.108Z,96715.69
2018-08-17T00:17:41.855Z,96708.36
2018-08-17T00:20:10.239Z,96706.41
2018-08-17T00:22:38.568Z,96697.38
2018-08-17T00:25:06.981Z,96696.92
2018-08-17T00:27:35.327Z,96699.59
2018-08-17T00:30:03.800Z,96697.62
2018-08-17T00:32:32.148Z,96699.47
2018-08-17T00:35:00.566Z,96703.66
2018-08-17T00:37:29.188Z,96701.23
2018-08-17T00:39:57.592Z,96702.81
2018-08-17T00:42:25.978Z,96698.44
2018-08-17T00:44:54.318Z,96699.56
2018-08-17T00:47:22.705Z,96703.23
2018-08-17T00:49:51.056Z,96698.90
2018-08-17T00:52:19.819Z,96701.00
2018-08-17T00:54:48.180Z,96690.18
2018-08-17T00:57:16.547Z,96684.28
2018-08-17T00:59:45.005Z,96682.15
2018-08-17T01:02:13.689Z,96685.57
2018-08-17T01:04:42.036Z,96687.64
2018-08-17T01:07:10.450Z,96687.21
2018-08-17T01:09:38.796Z,96690.35
2018-08-17T01:12:07.176Z,96698.62
2018-08-17T01:14:35.528Z,96699.33
2018-08-17T01:17:03.920Z,96698.38
2018-08-17T01:19:32.275Z,96688.81
2018-08-17T01:22:01.860Z,96685.08
2018-08-17T01:24:30.215Z,96685.95
2018-08-17T01:26:58.615Z,96693.32
2018-08-17T01:29:26.947Z,96697.20
2018-08-17T01:31:55.311Z,96695.81
2018-08-17T01:34:23.699Z,96695.27
2018-08-17T01:36:52.611Z,96698.63
2018-08-17T01:39:20.956Z,96695.92
2018-08-17T01:41:49.321Z,96697.06
2018-08-17T01:44:17.668Z,96695.71
2018-08-17T01:46:46.033Z,96688.25
2018-08-17T01:49:14.376Z,96689.43
2018-08-17T01:51:43.129Z,96682.61
2018-08-17T01:54:11.495Z,96686.38
2018-08-17T01:56:39.872Z,96683.16
2018-08-17T01:59:08.312Z,96691.42
2018-08-17T02:01:37.165Z,96693.67
2018-08-17T02:04:05.532Z,96687.30
2018-08-17T02:06:34.224Z,96688.16
2018-08-17T02:09:02.965Z,96695.96
2018-08-17T02:11:31.839Z,96697.28
2018-08-17T02:14:00.171Z,96702.47
2018-08-17T02:16:28.919Z,96704.34
2018-08-17T02:18:57.309Z,96702.97
2018-08-17T02:21:25.672Z,96707.59
2018-08-17T02:23:54.079Z,96709.31
2018-08-17T02:26:22.464Z,96705.39
2018-08-17T02:28:50.820Z,96704.71
2018-08-17T02:31:19.260Z,96700.03
2018-08-17T02:33:47.611Z,96706.33
2018-08-17T02:36:15.993Z,96703.00
2018-08-17T02:38:44.319Z,96699.20
2018-08-17T02:41:12.724Z,96694.00
2018-08-17T02:43:41.089Z,96695.03
2018-08-17T02:46:09.496Z,96694.75
2018-08-17T02:48:37.860Z,96694.28
2018-08-17T02:51:06.332Z,96704.50
2018-08-17T02:53:34.971Z,96706.39
2018-08-17T02:56:03.369Z,96699.31
2018-08-17T02:58:31.780Z,96696.45
2018-08-17T03:01:00.428Z,96691.05
2018-08-17T03:03:28.880Z,96691.16
2018-08-17T03:05:57.363Z,96694.48
2018-08-17T03:08:26.087Z,96712.84
2018-08-17T03:10:54.459Z,96707.67
2018-08-17T03:13:22.876Z,96705.28
2018-08-17T03:15:51.314Z,96706.74
2018-08-17T03:18:19.688Z,96701.72
2018-08-17T03:20:48.016Z,96707.08
2018-08-17T03:23:16.387Z,96707.99
2018-08-17T03:25:44.748Z,96707.39
2018-08-17T03:28:13.101Z,96710.59
2018-08-17T03:30:41.569Z,96716.23
2018-08-17T03:33:10.358Z,96722.66
2018-08-17T03:35:38.737Z,96722.16
2018-08-17T03:38:07.204Z,96722.73
2018-08-17T03:40:35.517Z,96730.91
2018-08-17T03:43:03.912Z,96729.37
2018-08-17T03:45:32.251Z,96733.00
2018-08-17T03:48:01.197Z,96739.76
2018-08-17T03:50:29.549Z,96738.91
2018-08-17T03:52:57.912Z,96747.02
2018-08-17T03:55:26.280Z,96753.70
2018-08-17T03:57:54.631Z,96762.22
2018-08-17T04:00:23.036Z,96750.72
2018-08-17T04:02:51.400Z,96752.36
2018-08-17T04:05:20.189Z,96759.38
2018-08-17T04:07:48.924Z,96772.33
2018-08-17T04:10:17.283Z,96770.45
2018-08-17T04:12:45.923Z,96771.73
2018-08-17T04:15:14.708Z,96774.11
2018-08-17T04:17:43.081Z,96787.67
2018-08-17T04:20:11.740Z,96784.40
2018-08-17T04:22:41.152Z,96781.62
2018-08-17T04:25:09.520Z,96778.16
2018-08-17T04:27:37.936Z,96776.45
2018-08-17T04:30:06.825Z,96763.47
2018-08-17T04:32:35.307Z,96768.95
2018-08-17T04:35:03.705Z,96787.72
2018-08-17T04:37:32.085Z,96793.14
2018-08-17T04:40:00.925Z,96790.55
2018-08-17T04:42:29.429Z,96777.95
2018-08-17T04:44:57.764Z,96785.59
2018-08-17T04:47:26.120Z,96795.91
2018-08-17T04:49:54.797Z,96791.77
2018-08-17T04:52:23.164Z,96782.28
2018-08-17T04:54:51.616Z,96804.59
2018-08-17T04:57:19.960Z,96823.53
2018-08-17T04:59:48.344Z,96807.95
2018-08-17T05:02:16.728Z,96816.51
2018-08-17T05:04:45.572Z,96833.31
2018-08-17T05:07:14.340Z,96824.19
2018-08-17T05:09:42.712Z,96821.72
2018-08-17T05:12:11.103Z,96838.11
2018-08-17T05:14:39.559Z,96825.44
2018-08-17T05:17:07.999Z,96845.61
2018-08-17T05:19:36.643Z,96842.33
2018-08-17T05:22:05.029Z,96844.97
2018-08-17T05:24:33.481Z,96848.59
2018-08-17T05:27:02.492Z,96858.09
2018-08-17T05:29:30.884Z,96867.84
2018-08-17T05:31:59.270Z,96867.50
2018-08-17T05:34:27.659Z,96862.63
2018-08-17T05:36:56.040Z,96875.04
2018-08-17T05:39:24.465Z,96873.99
2018-08-17T05:41:52.884Z,96873.44
2018-08-17T05:44:21.268Z,96880.28
2018-08-17T05:46:49.653Z,96882.16
2018-08-17T05:49:18.329Z,96882.70
2018-08-17T05:51:46.696Z,96887.95
2018-08-17T05:54:15.085Z,96898.00
2018-08-17T05:56:44.172Z,96902.74
2018-08-17T05:59:12.456Z,96908.23
2018-08-17T06:01:40.833Z,96903.27
2018-08-17T06:04:09.580Z,96912.13
2018-08-17T06:06:37.932Z,96917.77
2018-08-17T06:09:07.126Z,96913.91
2018-08-17T06:11:35.892Z,96909.62
2018-08-17T06:14:04.773Z,96907.51
2018-08-17T06:16:33.160Z,96914.39
2018-08-17T06:19:01.532Z,96917.09
2018-08-17T06:21:30.236Z,96927.10
2018-08-17T06:23:58.630Z,96927.49
2018-08-17T06:26:27.016Z,96931.25
2018-08-17T06:28:55.401Z,96934.18
2018-08-17T06:31:23.835Z,96942.43
2018-08-17T06:33:52.257Z,96950.51
2018-08-17T06:36:20.616Z,96959.30
2018-08-17T06:38:49.024Z,96966.89
2018-08-17T06:41:17.369Z,96959.03
2018-08-17T06:43:45.964Z,96960.48
2018-08-17T06:46:14.341Z,96963.50
2018-08-17T06:48:42.724Z,96963.92
2018-08-17T06:51:11.590Z,96970.37
2018-08-17T06:53:39.867Z,96971.14
2018-08-17T06:56:08.287Z,96982.89
2018-08-17T06:58:36.661Z,96983.52
2018-08-17T07:01:05.044Z,96988.03
2018-08-17T07:03:33.388Z,96988.78
2018-08-17T07:06:01.800Z,96994.05
2018-08-17T07:08:30.160Z,96994.22
2018-08-17T07:10:59.481Z,96997.73
2018-08-17T07:13:27.863Z,97002.37
2018-08-17T07:15:56.517Z,96993.33
2018-08-17T07:18:24.840Z,96984.50
2018-08-17T07:20:53.207Z,96991.73
2018-08-17T07:23:21.664Z,96993.05
2018-08-17T07:25:50.371Z,96989.83
2018-08-17T07:28:18.815Z,96994.40
2018-08-17T07:30:47.555Z,96997.20
2018-08-17T07:33:16.168Z,97002.95
2018-08-17T07:35:44.957Z,97011.16
2018-08-17T07:38:13.311Z,97003.55
2018-08-17T07:40:41.704Z,97007.02
2018-08-17T07:43:10.834Z,97018.56
2018-08-17T07:45:39.224Z,97009.44
2018-08-17T07:48:07.729Z,97015.16
2018-08-17T07:50:35.974Z,97020.16
2018-08-17T07:53:04.362Z,97018.91
2018-08-17T07:55:32.980Z,97016.19
2018-08-17T07:58:01.316Z,97025.30
2018-08-17T08:00:29.680Z,97026.13
2018-08-17T08:02:58.045Z,97034.23
2018-08-17T08:05:26.432Z,97041.03
2018-08-17T08:07:54.763Z,97040.42
2018-08-17T08:10:23.220Z,97035.28
2018-08-17T08:12:51.571Z,97037.40
2018-08-17T08:15:19.961Z,97038.20
2018-08-17T08:17:48.304Z,97033.40
2018-08-17T08:20:27.311Z,97030.11
2018-08-17T08:23:06.877Z,97034.11
2018-08-17T08:25:35.256Z,97033.22
2018-08-17T08:28:03.648Z,97030.81
2018-08-17T08:30:32.024Z,97005.64
2018-08-17T08:33:00.364Z,96987.92
2018-08-17T08:35:28.736Z,96989.31
2018-08-17T08:37:57.145Z,97012.05
2018-08-17T08:40:26.044Z,97014.09
2018-08-17T08:42:54.844Z,97012.94
2018-08-17T08:45:23.309Z,97033.30
2018-08-17T08:47:52.237Z,97024.97
2018-08-17T08:50:20.580Z,97029.33
2018-08-17T08:52:48.909Z,97032.80
2018-08-17T08:55:17.347Z,97027.02
2018-08-17T08:57:45.696Z,97030.05
2018-08-17T09:00:14.315Z,97031.05
2018-08-17T09:02:42.657Z,97023.55
2018-08-17T09:05:11.629Z,97029.27
2018-08-17T09:07:39.989Z,97019.11
2018-08-17T09:10:09.556Z,97020.96
2018-08-17T09:12:38.208Z,97019.80
2018-08-17T09:15:07.947Z,97011.84
2018-08-17T09:17:36.292Z,97020.35
2018-08-17T09:20:05.691Z,97016.42
2018-08-17T09:22:34.080Z,96998.19
2018-08-17T09:25:02.440Z,96985.13
2018-08-17T09:27:30.787Z,96981.34
2018-08-17T09:29:59.153Z,96968.72
2018-08-17T09:32:27.554Z,96959.31
2018-08-17T09:34:55.893Z,96966.29
2018-08-17T09:37:24.984Z,96962.64
2018-08-17T09:39:53.572Z,96963.80
2018-08-17T09:42:21.960Z,96968.50
2018-08-17T09:44:51.021Z,96958.36
2018-08-17T09:47:19.381Z,96957.50
2018-08-17T09:49:47.736Z,96951.67
2018-08-17T09:52:16.106Z,96947.29
2018-08-17T09:54:44.475Z,96950.45
2018-08-17T09:57:12.888Z,96947.48
2018-08-17T09:59:41.244Z,96939.23
2018-08-17T10:02:14.936Z,96943.48
2018-08-17T10:04:48.415Z,96945.58
2018-08-17T10:07:23.444Z,96961.67
2018-08-17T10:09:59.912Z,96964.69
2018-08-17T10:12:28.332Z,96973.52
2018-08-17T10:14:56.659Z,96977.75
2018-08-17T10:17:25.047Z,96973.88
2018-08-17T10:19:53.416Z,96980.13
2018-08-17T10:22:21.809Z,96981.05
2018-08-17T10:24:50.132Z,96976.55
2018-08-17T10:27:21.575Z,96979.93
2018-08-17T10:29:50.249Z,96971.23
2018-08-17T10:32:18.589Z,96970.41
2018-08-17T10:34:46.948Z,96971.77
2018-08-17T10:37:15.344Z,96980.86
2018-08-17T10:39:43.672Z,96981.20
2018-08-17T10:42:12.088Z,96974.63
2018-08-17T10:44:40.434Z,96971.29
2018-08-17T10:47:09.119Z,96968.36
2018-08-17T10:49:37.451Z,96972.26
2018-08-17T10:52:06.120Z,96965.21
2018-08-17T10:54:34.463Z,96956.86
2018-08-17T10:57:05.437Z,96966.30
2018-08-17T10:59:33.788Z,96969.10
2018-08-17T11:02:02.180Z,96972.32
2018-08-17T11:04:30.572Z,96979.88
2018-08-17T11:06:58.931Z,96992.66
2018-08-17T11:09:27.281Z,97001.98
2018-08-17T11:11:55.968Z,97002.98
2018-08-17T11:14:24.315Z,97011.48
2018-08-17T11:16:53.025Z,97011.13
2018-08-17T11:19:21.321Z,97007.13
2018-08-17T11:21:49.684Z,97022.73
2018-08-17T11:24:18.036Z,97026.56
2018-08-17T11:26:46.429Z,97038.44
2018-08-17T11:29:14.761Z,97033.85
2018-08-17T11:31:43.126Z,97033.81
2018-08-17T11:34:11.477Z,97023.20
2018-08-17T11:36:39.839Z,97026.09
2018-08-17T11:39:08.420Z,97031.02
2018-08-17T11:41:36.760Z,97024.58
2018-08-17T11:44:08.709Z,97019.00
2018-08-17T11:46:37.076Z,97017.64
2018-08-17T11:49:05.440Z,97018.98
2018-08-17T11:51:33.831Z,97020.80
2018-08-17T11:54:02.286Z,97015.73
2018-08-17T11:56:30.572Z,97012.66
2018-08-17T11:58:58.912Z,97008.14
2018-08-17T12:01:27.770Z,97008.52
2018-08-17T12:03:56.261Z,97006.20
2018-08-17T12:06:24.992Z,97016.06
2018-08-17T12:08:53.805Z,97005.53
2018-08-17T12:11:22.144Z,97003.81
2018-08-17T12:13:50.548Z,96995.44
2018-08-17T12:16:18.908Z,97005.43
2018-08-17T12:18:48.268Z,97005.69
2018-08-17T12:21:16.572Z,97002.61
2018-08-17T12:23:44.933Z,97011.59
2018-08-17T12:26:13.304Z,97013.93
2018-08-17T12:28:41.676Z,97011.55
2018-08-17T12:31:10.052Z,97005.25
2018-08-17T12:33:38.405Z,97012.06
2018-08-17T12:36:07.088Z,97011.89
2018-08-17T12:38:35.456Z,97008.38
2018-08-17T12:41:03.814Z,97015.92
2018-08-17T12:43:37.008Z,97009.30
2018-08-17T12:46:05.408Z,97014.09
2018-08-17T12:48:33.813Z,97020.35
2018-08-17T12:51:04.227Z,97023.16
2018-08-17T12:53:32.656Z,97025.67
2018-08-17T12:56:01.035Z,97019.05
2018-08-17T12:58:29.408Z,97031.44
2018-08-17T13:00:57.739Z,97028.87
2018-08-17T13:03:26.105Z,97039.00
2018-08-17T13:05:54.792Z,97034.61
2018-08-17T13:08:23.179Z,97036.75
2018-08-17T13:10:52.064Z,97032.39
2018-08-17T13:13:20.931Z,97030.53
2018-08-17T13:15:53.590Z,97032.34
2018-08-17T13:18:21.971Z,97042.51
2018-08-17T13:20:51.197Z,97036.63
2018-08-17T13:23:19.828Z,97044.67
2018-08-17T13:25:48.191Z,97041.66
2018-08-17T13:28:16.560Z,97048.14
2018-08-17T13:30:44.936Z,97052.63
2018-08-17T13:33:13.316Z,97054.97
2018-08-17T13:35:41.649Z,97050.22
2018-08-17T13:38:10.023Z,97049.67
2018-08-17T13:40:38.625Z,97051.39
2018-08-17T13:43:07.024Z,97054.97
2018-08-17T13:45:35.495Z,97050.00
2018-08-17T13:48:03.883Z,97055.29
2018-08-17T13:50:32.217Z,97054.97
2018-08-17T13:53:00.609Z,97063.84
2018-08-17T13:55:29.013Z,97059.27
2018-08-17T13:57:57.348Z,97053.16
2018-08-17T14:00:25.684Z,97058.13
2018-08-17T14:02:54.083Z,97055.85
2018-08-17T14:05:22.669Z,97055.27
2018-08-17T14:07:51.044Z,97058.66
2018-08-17T14:10:19.924Z,97055.36
2018-08-17T14:12:48.288Z,97058.13
2018-08-17T14:15:17.142Z,97060.80
2018-08-17T14:17:45.501Z,97055.75
2018-08-17T14:20:15.744Z,97058.81
2018-08-17T14:22:44.076Z,97059.19
2018-08-17T14:25:12.717Z,97059.98
2018-08-17T14:27:41.100Z,97061.03
2018-08-17T14:30:12.109Z,97065.53
2018-08-17T14:32:40.573Z,97066.41
2018-08-17T14:35:09.112Z,97056.59
2018-08-17T14:37:37.490Z,97069.98
2018-08-17T14:40:06.088Z,97069.86
2018-08-17T14:42:34.427Z,97070.78
2018-08-17T14:45:02.811Z,97067.94
2018-08-17T14:47:31.285Z,97082.41
2018-08-17T14:49:59.662Z,97075.80
2018-08-17T14:52:28.068Z,97080.87
2018-08-17T14:54:56.934Z,97080.55
2018-08-17T14:57:25.337Z,97077.51
2018-08-17T14:59:53.748Z,97085.22
2018-08-17T15:02:23.431Z,97093.31
2018-08-17T15:04:51.841Z,97097.59
2018-08-17T15:07:20.997Z,97096.36
2018-08-17T15:09:49.414Z,97102.94
2018-08-17T15:12:17.776Z,97101.56
2018-08-17T15:14:46.136Z,97105.86
2018-08-17T15:17:14.981Z,97103.03
2018-08-17T15:19:43.742Z,97106.73
2018-08-17T15:22:12.364Z,97106.56
2018-08-17T15:24:40.725Z,97107.00
2018-08-17T15:27:09.050Z,97096.08
2018-08-17T15:29:37.760Z,97098.97
2018-08-17T15:32:06.340Z,97100.30
2018-08-17T15:34:35.993Z,97106.49
2018-08-17T15:37:04.428Z,97110.54
2018-08-17T15:39:32.780Z,97105.33
2018-08-17T15:42:01.579Z,97108.75
2018-08-17T15:44:30.296Z,97106.94
2018-08-17T15:46:59.591Z,97101.68
2018-08-17T15:49:34.753Z,97095.28
2018-08-17T15:52:07.277Z,97101.91
2018-08-17T15:54:35.857Z,97103.31
2018-08-17T15:57:04.280Z,97102.48
2018-08-17T15:59:33.007Z,97106.81
2018-08-17T16:02:01.405Z,97105.33
2018-08-17T16:04:30.101Z,97106.47
2018-08-17T16:06:58.481Z,97106.93
2018-08-17T16:09:27.094Z,97108.92
2018-08-17T16:11:55.431Z,97105.66
2018-08-17T16:14:23.785Z,97108.33
2018-08-17T16:16:52.120Z,97112.73
2018-08-17T16:19:20.509Z,97110.72
2018-08-17T16:21:49.295Z,97110.88
2018-08-17T16:24:17.672Z,97104.08
2018-08-17T16:26:46.044Z,97109.75
2018-08-17T16:29:14.403Z,97106.04
2018-08-17T16:31:44.042Z,97116.14
2018-08-17T16:34:12.581Z,97113.01
2018-08-17T16:36:42.389Z,97122.34
2018-08-17T16:39:17.248Z,97120.67
2018-08-17T16:41:46.570Z,97125.22
2018-08-17T16:44:15.232Z,97121.50
2018-08-17T16:46:44.108Z,97134.23
2018-08-17T16:49:13.001Z,97132.00
2018-08-17T16:51:41.844Z,97131.80
2018-08-17T16:54:10.624Z,97127.54
2018-08-17T16:56:39.188Z,97126.09
2018-08-17T16:59:07.835Z,97131.12
2018-08-17T17:01:36.181Z,97132.73
2018-08-17T17:04:04.544Z,97134.94
2018-08-17T17:06:32.989Z,97143.11
2018-08-17T17:09:04.767Z,97144.93
2018-08-17T17:11:33.149Z,97147.39
2018-08-17T17:14:01.489Z,97151.59
2018-08-17T17:17:01.041Z,97153.83
2018-08-17T17:19:29.405Z,97151.06
2018-08-17T17:21:57.744Z,97141.78
2018-08-17T17:24:26.871Z,97143.45
2018-08-17T17:26:55.300Z,97147.77
2018-08-17T17:29:23.909Z,97149.66
2018-08-17T17:31:52.852Z,97147.79
2018-08-17T17:34:21.196Z,97151.28
2018-08-17T17:36:49.536Z,97153.20
2018-08-17T17:39:17.925Z,97153.70
2018-08-17T17:41:46.291Z,97156.30
2018-08-17T17:44:14.623Z,97156.14
2018-08-17T17:46:42.997Z,97164.09
2018-08-17T17:49:11.692Z,97158.47
2018-08-17T17:51:40.349Z,97168.08
2018-08-17T17:54:08.751Z,97175.09
2018-08-17T17:56:37.532Z,97179.05
2018-08-17T17:59:10.900Z,97176.20
2018-08-17T18:01:39.268Z,97179.59
2018-08-17T18:04:07.689Z,97184.92
2018-08-17T18:06:36.233Z,97189.88
2018-08-17T18:09:05.645Z,97189.58
2018-08-17T18:11:34.027Z,97194.08
2018-08-17T18:14:02.406Z,97194.63
2018-08-17T18:16:30.789Z,97194.47
2018-08-17T18:18:59.160Z,97197.67
2018-08-17T18:21:30.763Z,97210.62
2018-08-17T18:24:17.268Z,97213.17
2018-08-17T18:26:48.031Z,97216.74
2018-08-17T18:29:16.576Z,97213.87
2018-08-17T18:31:45.000Z,97215.06
2018-08-17T18:34:14.151Z,97218.52
2018-08-17T18:36:42.905Z,97222.48
2018-08-17T18:39:12.998Z,97227.67
2018-08-17T18:41:41.468Z,97231.03
2018-08-17T18:44:10.360Z,97235.03
2018-08-17T18:46:38.870Z,97230.72
2018-08-17T18:49:07.372Z,97239.60
2018-08-17T18:51:36.008Z,97234.27
2018-08-17T18:54:04.424Z,97232.57
2018-08-17T18:56:32.788Z,97238.32
2018-08-17T18:59:01.161Z,97241.52
2018-08-17T19:01:29.506Z,97241.22
2018-08-17T19:03:57.836Z,97245.58
2018-08-17T19:06:26.616Z,97251.05
2018-08-17T19:08:54.960Z,97251.57
2018-08-17T19:11:23.839Z,97259.05
2018-08-17T19:13:52.204Z,97261.09
2018-08-17T19:16:20.840Z,97261.39
2018-08-17T19:18:49.208Z,97269.68
2018-08-17T19:21:18.700Z,97278.55
2018-08-17T19:23:47.473Z,97280.17
2018-08-17T19:26:16.048Z,97283.81
2018-08-17T19:28:44.552Z,97278.98
2018-08-17T19:31:13.420Z,97290.05
2018-08-17T19:33:42.192Z,97291.86
2018-08-17T19:36:10.564Z,97290.24
2018-08-17T19:38:41.772Z,97293.52
2018-08-17T19:41:10.364Z,97290.79
2018-08-17T19:43:38.916Z,97296.83
2018-08-17T19:46:07.537Z,97299.28
2018-08-17T19:48:36.083Z,97301.51
2018-08-17T19:51:24.164Z,97304.33
2018-08-17T19:53:52.824Z,97304.43
2018-08-17T19:56:21.525Z,97310.13
2018-08-17T19:58:49.856Z,97307.28
2018-08-17T20:01:18.219Z,97311.25
2018-08-17T20:03:46.554Z,97313.78
2018-08-17T20:06:14.924Z,97314.95
2018-08-17T20:08:43.277Z,97316.16
2018-08-17T20:11:11.680Z,97322.13
2018-08-17T20:13:40.008Z,97323.09
2018-08-17T20:16:16.899Z,97321.20
2018-08-17T20:18:45.234Z,97324.20
2018-08-17T20:21:14.911Z,97319.52
2018-08-17T20:23:43.347Z,97320.91
2018-08-17T20:26:12.193Z,97315.94
2018-08-17T20:28:40.751Z,97310.89
2018-08-17T20:31:09.193Z,97311.67
2018-08-17T20:33:38.377Z,97313.88
2018-08-17T20:36:06.737Z,97312.31
2018-08-17T20:38:35.175Z,97318.40
2018-08-17T20:41:03.560Z,97322.22
2018-08-17T20:43:31.934Z,97320.69
2018-08-17T20:46:00.366Z,97324.48
2018-08-17T20:48:28.745Z,97327.88
2018-08-17T20:50:57.604Z,97322.19
2018-08-17T20:53:26.582Z,97319.25
2018-08-17T20:55:54.931Z,97327.88
2018-08-17T20:58:23.710Z,97322.73
2018-08-17T21:00:52.057Z,97327.77
2018-08-17T21:03:20.416Z,97325.84
2018-08-17T21:05:48.868Z,97322.09
2018-08-17T21:08:17.643Z,97328.83
2018-08-17T21:10:46.209Z,97332.45
2018-08-17T21:13:15.208Z,97332.61
2018-08-17T21:15:44.055Z,97338.30
2018-08-17T21:18:12.405Z,97340.49
2018-08-17T21:20:40.852Z,97344.88
2018-08-17T21:23:09.441Z,97348.73
2018-08-17T21:25:37.788Z,97353.88
2018-08-17T21:28:06.169Z,97353.30
2018-08-17T21:30:34.499Z,97358.41
2018-08-17T21:33:02.871Z,97361.69
2018-08-17T21:35:31.901Z,97359.30
2018-08-17T21:38:00.268Z,97365.28
2018-08-17T21:40:29.724Z,97366.40
2018-08-17T21:43:00.477Z,97365.25
2018-08-17T21:45:28.832Z,97367.98
2018-08-17T21:47:57.215Z,97365.01
2018-08-17T21:50:25.592Z,97367.22
2018-08-17T21:52:53.967Z,97371.27
2018-08-17T21:55:22.376Z,97365.91
2018-08-17T21:57:50.936Z,97374.59
2018-08-17T22:00:22.103Z,97371.32
2018-08-17T22:02:50.832Z,97373.50
2018-08-17T22:05:34.176Z,97377.03
2018-08-17T22:08:02.687Z,97380.59
2018-08-17T22:10:31.427Z,97386.23
2018-08-17T22:12:59.809Z,97382.47
2018-08-17T22:15:29.871Z,97385.45
2018-08-17T22:17:58.268Z,97379.80
2018-08-17T22:20:26.663Z,97383.57
2018-08-17T22:22:55.056Z,97389.53
2018-08-17T22:25:23.488Z,97378.98
2018-08-17T22:27:51.859Z,97385.50
2018-08-17T22:30:23.171Z,97381.97
2018-08-17T22:32:52.030Z,97383.88
2018-08-17T22:35:20.473Z,97392.50
2018-08-17T22:37:49.245Z,97392.80
2018-08-17T22:40:18.212Z,97396.02
2018-08-17T22:42:47.297Z,97392.50
2018-08-17T22:45:48.936Z,97393.83
2018-08-17T22:48:17.416Z,97385.19
2018-08-17T22:50:46.568Z,97386.00
2018-08-17T22:53:14.945Z,97392.80
2018-08-17T22:55:43.716Z,97393.83
2018-08-17T22:58:12.053Z,97390.60
2018-08-17T23:00:40.439Z,97400.30
2018-08-17T23:03:08.856Z,97405.16
2018-08-17T23:05:37.330Z,97408.67
2018-08-17T23:08:06.011Z,97408.67
2018-08-17T23:10:34.376Z,97413.27
2018-08-17T23:13:02.795Z,97414.61
2018-08-17T23:15:31.156Z,97416.77
2018-08-17T23:18:00.657Z,97418.38
2018-08-17T23:20:35.368Z,97414.90
2018-08-17T23:23:05.286Z,97408.09
2018-08-17T23:25:33.784Z,97408.34
2018-08-17T23:28:02.161Z,97411.80
2018-08-17T23:30:30.531Z,97414.44
2018-08-17T23:32:59.196Z,97420.41
2018-08-17T23:35:27.576Z,97410.93
2018-08-17T23:37:55.964Z,97410.16
2018-08-17T23:40:24.387Z,97412.07
2018-08-17T23:42:52.739Z,97417.50
2018-08-17T23:45:21.132Z,97410.73
2018-08-17T23:47:49.484Z,97410.16
2018-08-17T23:50:18.592Z,97415.51
2018-08-17T23:52:46.948Z,97413.89
2018-08-17T23:55:16.893Z,97416.52
2018-08-17T23:57:45.293Z,97414.10
